createdAt,value
2023-01-17T00:02:51.923Z,3.46
2023-01-17T00:05:43.132Z,3.43
2023-01-17T00:16:13.711Z,3.40
2023-01-17T00:19:04.863Z,3.33
2023-01-17T00:21:50.571Z,3.18
2023-01-17T00:24:41.645Z,3.27
2023-01-17T00:27:15.081Z,3.19
2023-01-17T00:29:42.084Z,3.10
2023-01-17T00:34:51.954Z,3.01
2023-01-17T00:39:58.779Z,3.01
2023-01-17T00:42:31.262Z,2.98
2023-01-17T00:48:11.097Z,2.99
2023-01-17T00:50:59.191Z,2.94
2023-01-17T00:53:44.982Z,2.90
2023-01-17T00:56:35.245Z,2.91
2023-01-17T00:59:26.771Z,2.94
2023-01-17T01:05:09.736Z,2.93
2023-01-17T01:07:58.441Z,2.91
2023-01-17T01:10:49.140Z,3.04
2023-01-17T01:13:38.125Z,2.97
2023-01-17T01:16:25.752Z,2.94
2023-01-17T01:19:12.249Z,2.92
2023-01-17T01:21:59.812Z,2.92
2023-01-17T01:24:54.983Z,2.89
2023-01-17T01:27:49.933Z,2.79
2023-01-17T01:30:37.063Z,2.84
2023-01-17T01:35:55.155Z,2.78
2023-01-17T01:43:52.087Z,2.69
2023-01-17T01:49:28.525Z,2.60
2023-01-17T01:52:24.566Z,2.48
2023-01-17T01:55:04.481Z,2.41
2023-01-17T01:57:45.727Z,2.48
2023-01-17T02:00:39.312Z,2.53
2023-01-17T02:05:47.501Z,2.72
2023-01-17T02:10:46.916Z,2.93
2023-01-17T02:16:03.305Z,2.97
2023-01-17T02:18:51.967Z,2.94
2023-01-17T02:21:37.780Z,2.94
2023-01-17T02:24:09.373Z,3.01
2023-01-17T02:27:07.078Z,3.07
2023-01-17T02:32:45.974Z,3.01
2023-01-17T02:35:56.346Z,3.07
2023-01-17T02:38:37.007Z,2.95
2023-01-17T02:41:07.991Z,3.07
2023-01-17T02:43:38.667Z,2.98
2023-01-17T02:46:11.727Z,3.01
2023-01-17T02:48:55.504Z,3.05
2023-01-17T02:55:08.140Z,2.82
2023-01-17T03:00:59.249Z,2.73
2023-01-17T03:03:55.369Z,2.58
2023-01-17T03:06:48.469Z,2.58
2023-01-17T03:09:25.990Z,2.63
2023-01-17T03:14:22.744Z,2.55
2023-01-17T03:16:53.120Z,2.49
2023-01-17T03:24:43.459Z,2.64
2023-01-17T03:29:45.238Z,2.47
2023-01-17T03:34:44.085Z,2.50
2023-01-17T03:39:40.910Z,2.51
2023-01-17T03:42:10.844Z,2.35
2023-01-17T03:44:37.915Z,2.51
2023-01-17T03:47:07.530Z,2.39
2023-01-17T03:49:34.572Z,2.40
2023-01-17T03:52:09.872Z,2.28
2023-01-17T03:54:41.847Z,2.42
2023-01-17T03:57:11.085Z,2.42
2023-01-17T03:59:41.894Z,2.31
2023-01-17T04:02:13.450Z,2.30
2023-01-17T04:04:45.483Z,2.27
2023-01-17T04:09:59.139Z,2.40
2023-01-17T04:12:41.685Z,2.14
2023-01-17T04:17:53.332Z,2.16
2023-01-17T04:20:40.714Z,2.22
2023-01-17T04:23:10.804Z,2.21
2023-01-17T04:25:38.361Z,2.32
2023-01-17T04:30:46.718Z,2.53
2023-01-17T04:33:28.115Z,2.45
2023-01-17T04:36:02.444Z,2.34
2023-01-17T04:38:29.521Z,2.43
2023-01-17T04:41:03.122Z,2.38
2023-01-17T04:43:30.297Z,2.38
2023-01-17T04:46:07.228Z,2.49
2023-01-17T04:48:37.380Z,2.41
2023-01-17T04:51:05.990Z,2.41
2023-01-17T04:53:48.102Z,2.36
2023-01-17T04:56:22.569Z,2.37
2023-01-17T04:58:49.635Z,2.31
2023-01-17T05:01:21.245Z,2.33
2023-01-17T05:03:55.421Z,2.21
2023-01-17T05:06:34.369Z,1.87
2023-01-17T05:09:07.194Z,1.75
2023-01-17T05:11:46.224Z,1.87
2023-01-17T05:14:18.434Z,1.84
2023-01-17T05:16:47.835Z,1.83
2023-01-17T05:19:22.096Z,1.76
2023-01-17T05:21:54.312Z,1.78
2023-01-17T05:24:26.652Z,1.88
2023-01-17T05:27:06.847Z,1.96
2023-01-17T05:29:36.616Z,1.98
2023-01-17T05:32:10.579Z,1.76
2023-01-17T05:34:41.235Z,1.71
2023-01-17T05:37:10.361Z,1.75
2023-01-17T05:39:52.824Z,1.78
2023-01-17T05:42:25.996Z,1.82
2023-01-17T05:47:27.718Z,1.91
2023-01-17T05:50:01.366Z,1.95
2023-01-17T05:52:44.984Z,1.92
2023-01-17T05:57:48.396Z,2.03
2023-01-17T06:00:16.868Z,1.91
2023-01-17T06:09:35.494Z,1.27
2023-01-17T06:14:49.111Z,1.20
2023-01-17T06:17:36.769Z,1.22
2023-01-17T06:20:08.390Z,1.18
2023-01-17T06:23:03.939Z,1.29
2023-01-17T06:25:44.505Z,1.29
2023-01-17T06:30:44.512Z,1.21
2023-01-17T06:33:31.612Z,1.14
2023-01-17T06:36:09.719Z,1.07
2023-01-17T06:42:44.777Z,1.17
2023-01-17T06:48:03.269Z,1.20
2023-01-17T06:50:33.935Z,1.36
2023-01-17T06:53:07.416Z,1.57
2023-01-17T06:55:47.112Z,1.64
2023-01-17T07:00:45.194Z,1.74
2023-01-17T07:03:27.698Z,1.75
2023-01-17T07:05:55.525Z,1.72
2023-01-17T07:08:38.752Z,1.72
2023-01-17T07:11:31.242Z,1.69
2023-01-17T07:13:59.468Z,1.67
2023-01-17T07:16:31.689Z,1.61
2023-01-17T07:32:40.712Z,1.42
2023-01-17T09:54:57.851Z,2.33
2023-01-17T09:57:34.891Z,2.35
2023-01-17T10:00:29.031Z,2.34
2023-01-17T10:03:35.476Z,2.31
2023-01-17T10:06:47.541Z,2.41
2023-01-17T10:09:40.361Z,2.46
2023-01-17T10:12:58.262Z,2.41
2023-01-17T10:16:25.540Z,2.49
2023-01-17T10:19:36.074Z,2.54
2023-01-17T10:23:02.258Z,2.60
2023-01-17T10:25:55.729Z,2.60
2023-01-17T10:28:54.250Z,2.68
2023-01-17T10:31:32.208Z,2.78
2023-01-17T10:34:38.266Z,2.84
2023-01-17T10:37:41.880Z,2.85
2023-01-17T10:43:29.085Z,2.88
2023-01-17T10:46:36.374Z,2.97
2023-01-17T10:50:07.536Z,3.02
2023-01-17T10:58:12.386Z,3.14
2023-01-17T11:02:08.461Z,3.23
2023-01-17T11:13:53.169Z,3.35
2023-01-17T11:16:40.971Z,3.36
2023-01-17T11:19:31.656Z,3.36
2023-01-17T11:37:29.405Z,3.01
2023-01-17T11:40:39.619Z,2.97
2023-01-17T11:55:45.311Z,2.97
2023-01-17T12:02:41.155Z,3.05
2023-01-17T12:05:56.412Z,3.14
2023-01-17T12:13:56.136Z,3.07
2023-01-17T12:16:56.616Z,3.08
2023-01-17T12:19:43.568Z,3.13
2023-01-17T12:22:56.340Z,3.09
2023-01-17T12:26:34.015Z,3.23
2023-01-17T12:31:51.214Z,3.36
2023-01-17T12:35:03.281Z,3.44
2023-01-17T12:37:37.530Z,3.74
2023-01-17T13:12:21.285Z,4.13
2023-01-17T13:18:16.942Z,4.08
2023-01-17T13:29:19.885Z,4.47
2023-01-17T13:35:09.483Z,4.53
2023-01-17T13:37:50.126Z,4.55
2023-01-17T13:40:50.682Z,4.61
2023-01-17T13:48:16.451Z,4.57
2023-01-17T13:50:58.443Z,4.64
2023-01-17T14:00:52.004Z,4.93
2023-01-17T14:04:06.943Z,4.97
2023-01-17T14:07:02.023Z,4.92
2023-01-17T14:10:12.447Z,4.88
2023-01-17T14:12:51.417Z,4.88
2023-01-17T14:15:36.026Z,4.75
2023-01-17T14:18:10.658Z,4.65
2023-01-17T14:20:50.127Z,4.50
2023-01-17T14:23:38.403Z,4.40
2023-01-17T14:26:37.644Z,4.29
2023-01-17T14:29:50.199Z,4.17
2023-01-17T14:33:05.973Z,4.06
2023-01-17T14:35:57.449Z,3.96
2023-01-17T14:38:28.860Z,3.98
2023-01-17T14:41:09.121Z,3.97
2023-01-17T14:44:21.573Z,3.89
2023-01-17T14:47:00.334Z,3.81
2023-01-17T14:49:27.498Z,3.83
2023-01-17T14:52:02.362Z,3.82
2023-01-17T14:54:33.692Z,3.75
2023-01-17T14:58:02.693Z,3.69
2023-01-17T15:00:42.191Z,3.72
2023-01-17T15:05:51.965Z,3.69
2023-01-17T15:12:00.995Z,3.56
2023-01-17T15:15:01.748Z,3.46
2023-01-17T15:24:44.598Z,3.38
2023-01-17T15:27:20.109Z,3.32
2023-01-17T15:29:47.958Z,3.25
2023-01-17T15:33:00.523Z,3.24
2023-01-17T15:35:39.051Z,3.13
2023-01-17T15:38:07.265Z,3.10
2023-01-17T15:47:40.808Z,2.85
2023-01-17T15:50:20.013Z,2.81
2023-01-17T15:52:53.160Z,2.78
2023-01-17T15:55:48.674Z,2.73
2023-01-17T16:00:56.942Z,2.61
2023-01-17T16:06:35.763Z,2.56
2023-01-17T16:09:04.809Z,2.49
2023-01-17T16:12:00.864Z,2.56
2023-01-17T16:15:19.496Z,2.54
2023-01-17T16:18:26.063Z,2.57
2023-01-17T16:21:15.003Z,2.55
2023-01-17T16:23:47.970Z,2.53
2023-01-17T16:30:22.341Z,2.60
2023-01-17T16:32:55.459Z,2.57
2023-01-17T16:35:44.279Z,2.47
2023-01-17T16:38:16.166Z,2.46
2023-01-17T16:40:46.832Z,2.48
2023-01-17T16:43:28.581Z,2.48
2023-01-17T16:46:24.504Z,2.48
2023-01-17T16:48:58.292Z,2.48
2023-01-17T16:51:43.667Z,2.46
2023-01-17T16:54:30.695Z,2.40
2023-01-17T16:57:01.026Z,2.37
2023-01-17T17:04:07.995Z,2.31
2023-01-17T17:25:23.128Z,2.30
2023-01-17T17:28:11.739Z,2.34
2023-01-17T17:33:21.402Z,2.33
2023-01-17T17:35:56.601Z,2.28
2023-01-17T17:42:15.586Z,2.18
2023-01-17T17:44:55.633Z,2.17
2023-01-17T17:47:50.321Z,2.19
2023-01-17T17:50:17.486Z,2.11
2023-01-17T18:00:00.192Z,1.86
2023-01-17T18:02:30.070Z,1.84
2023-01-17T18:04:57.313Z,1.81
2023-01-17T18:07:27.301Z,1.87
2023-01-17T18:09:57.242Z,1.78
2023-01-17T18:12:25.828Z,1.76
2023-01-17T18:14:52.711Z,1.69
2023-01-17T18:17:20.405Z,1.70
2023-01-17T18:19:47.424Z,1.66
2023-01-17T18:22:18.819Z,1.69
2023-01-17T18:27:35.519Z,1.57
2023-01-17T18:30:03.771Z,1.59
2023-01-17T18:32:42.829Z,1.69
2023-01-17T18:35:17.436Z,1.63
2023-01-17T18:40:16.711Z,1.63
2023-01-17T18:45:13.568Z,1.58
2023-01-17T18:50:07.346Z,1.68
2023-01-17T18:55:09.930Z,1.67
2023-01-17T19:00:07.516Z,1.65
2023-01-17T19:02:34.676Z,1.63
2023-01-17T19:05:05.534Z,1.54
2023-01-17T19:07:35.009Z,1.51
2023-01-17T19:10:02.173Z,1.45
2023-01-17T19:12:35.411Z,1.41
2023-01-17T19:15:02.393Z,1.38
2023-01-17T19:17:29.284Z,1.42
2023-01-17T19:20:01.512Z,1.45
2023-01-17T19:22:28.593Z,1.46
2023-01-17T19:24:55.623Z,1.60
2023-01-17T19:27:26.377Z,1.64
2023-01-17T19:29:53.445Z,1.64
2023-01-17T19:32:20.370Z,1.68
2023-01-17T19:34:47.176Z,1.67
2023-01-17T19:37:14.268Z,1.67
2023-01-17T19:39:41.158Z,1.66
2023-01-17T19:42:17.427Z,1.63
2023-01-17T19:44:46.559Z,1.52
2023-01-17T19:47:13.406Z,1.33
2023-01-17T19:49:42.688Z,1.32
2023-01-17T19:52:18.229Z,1.27
2023-01-17T19:54:45.115Z,1.30
2023-01-17T19:57:14.873Z,1.20
2023-01-17T20:02:09.883Z,1.19
2023-01-17T20:04:36.787Z,1.27
2023-01-17T20:07:05.875Z,1.33
2023-01-17T20:09:42.378Z,1.39
2023-01-17T20:12:14.780Z,1.33
2023-01-17T20:14:44.765Z,1.37
2023-01-17T20:17:13.589Z,1.44
2023-01-17T20:19:42.547Z,1.47
2023-01-17T20:22:09.614Z,1.53
2023-01-17T20:27:05.917Z,1.43
2023-01-17T20:32:11.439Z,1.39
2023-01-17T20:34:38.270Z,1.37
2023-01-17T20:37:05.208Z,1.43
2023-01-17T20:39:35.596Z,1.49
2023-01-17T20:42:04.026Z,1.57
2023-01-17T20:44:36.629Z,1.58
2023-01-17T20:47:09.920Z,1.52
2023-01-17T20:49:37.092Z,1.49
2023-01-17T20:52:06.574Z,1.47
2023-01-17T20:57:09.710Z,1.46
2023-01-17T20:59:49.783Z,1.50
2023-01-17T21:02:17.098Z,1.52
2023-01-17T21:04:48.051Z,1.59
2023-01-17T21:07:14.950Z,1.56
2023-01-17T21:09:43.053Z,1.55
2023-01-17T21:12:11.232Z,1.54
2023-01-17T21:17:07.887Z,1.56
2023-01-17T21:22:07.987Z,1.60
2023-01-17T21:24:46.576Z,1.61
2023-01-17T21:27:24.516Z,1.62
2023-01-17T21:29:57.234Z,1.53
2023-01-17T21:32:29.192Z,1.55
2023-01-17T21:34:56.198Z,1.41
2023-01-17T21:37:23.165Z,1.31
2023-01-17T21:39:54.783Z,1.32
2023-01-17T21:42:25.381Z,1.32
2023-01-17T21:45:06.410Z,1.28
2023-01-17T21:47:35.911Z,1.38
2023-01-17T21:50:03.020Z,1.36
2023-01-17T21:52:31.655Z,1.33
2023-01-17T21:55:16.876Z,1.35
2023-01-17T21:58:02.397Z,1.36
2023-01-17T22:00:32.689Z,1.41
2023-01-17T22:03:02.298Z,1.37
2023-01-17T22:05:29.307Z,1.39
2023-01-17T22:08:20.704Z,1.25
2023-01-17T22:10:49.462Z,1.26
2023-01-17T22:13:20.551Z,1.31
2023-01-17T22:16:01.571Z,1.31
2023-01-17T22:18:33.260Z,1.31
2023-01-17T22:23:32.691Z,1.36
2023-01-17T22:26:05.282Z,1.32
2023-01-17T22:28:34.896Z,1.25
2023-01-17T22:33:58.171Z,1.22
2023-01-17T22:44:05.534Z,1.28
2023-01-17T22:49:07.708Z,1.42
2023-01-17T22:54:04.372Z,1.30
2023-01-17T22:56:35.347Z,1.23
2023-01-17T22:59:08.071Z,1.15
2023-01-17T23:01:36.307Z,1.07
2023-01-17T23:09:11.304Z,1.10
2023-01-17T23:14:23.911Z,1.21
2023-01-17T23:17:16.685Z,1.24
2023-01-17T23:19:44.390Z,1.26
2023-01-17T23:22:16.452Z,1.19
2023-01-17T23:24:52.148Z,1.17
2023-01-17T23:30:16.743Z,1.15
2023-01-17T23:35:18.295Z,1.19
2023-01-17T23:38:03.643Z,1.22
2023-01-17T23:40:34.922Z,1.27
2023-01-17T23:43:20.891Z,1.28
2023-01-17T23:45:53.947Z,1.39
2023-01-17T23:48:24.713Z,1.36
2023-01-17T23:51:00.626Z,1.30
2023-01-17T23:53:28.144Z,1.15
2023-01-17T23:58:27.861Z,1.10
